Time;durP1;ratioP1;P1;durP2;ratioP2;P2;SDS_P1;SDS_P2;PMS_P1;PMS_P2;Temp;Humidity;BMP_temperature;BMP_pressure;BME280_temperature;BME280_humidity;BME280_pressure;Samples;Min_cycle;Max_cycle;Signal;HPM_P1;HPM_P2
2023/05/26 00:00:37;;;;;;;9.45;7.47;;;;;;;17.36;100.00;100882.34;2108913;28;20078;-72
2023/05/26 00:02:01;;;;;;;10.13;7.75;;;;;;;17.37;100.00;100877.91;2093660;28;20044;-72
2023/05/26 00:03:27;;;;;;;9.32;7.20;;;;;;;17.37;100.00;100880.56;2106310;28;20502;-72
2023/05/26 00:04:49;;;;;;;9.80;7.70;;;;;;;17.36;100.00;100871.69;2105305;28;20048;-72
2023/05/26 00:06:12;;;;;;;10.43;6.75;;;;;;;17.37;100.00;100872.56;2097801;28;20044;-72
2023/05/26 00:07:33;;;;;;;8.40;6.75;;;;;;;17.37;100.00;100870.78;2107771;28;20496;-72
2023/05/26 00:08:56;;;;;;;9.57;7.20;;;;;;;17.38;100.00;100871.69;2101986;28;20051;-72
2023/05/26 00:10:17;;;;;;;8.45;7.55;;;;;;;17.40;100.00;100872.53;2099892;28;20071;-72
2023/05/26 00:11:39;;;;;;;8.10;6.82;;;;;;;17.39;100.00;100882.31;2099670;28;20125;-72
2023/05/26 00:13:02;;;;;;;9.63;6.28;;;;;;;17.38;100.00;100880.56;2107625;28;20036;-72
2023/05/26 00:14:23;;;;;;;9.63;6.32;;;;;;;17.37;100.00;100883.25;2099688;28;20041;-72
2023/05/26 00:15:46;;;;;;;9.35;5.60;;;;;;;17.36;100.00;100871.69;2099548;28;20532;-72
2023/05/26 00:17:09;;;;;;;10.23;6.65;;;;;;;17.37;100.00;100873.47;2099201;28;20048;-72
2023/05/26 00:18:33;;;;;;;8.73;7.00;;;;;;;17.37;100.00;100869.91;2104521;28;20075;-72
2023/05/26 00:19:54;;;;;;;10.90;7.18;;;;;;;17.35;100.00;100864.56;2102835;28;20040;-72
2023/05/26 00:21:17;;;;;;;10.35;7.60;;;;;;;17.36;100.00;100868.13;2099730;28;20389;-72
2023/05/26 00:22:38;;;;;;;8.63;7.30;;;;;;;17.36;100.00;100862.78;2099935;28;20048;-72
2023/05/26 00:24:00;;;;;;;11.20;7.47;;;;;;;17.36;100.00;100863.69;2111194;28;20039;-72
2023/05/26 00:25:22;;;;;;;10.73;7.30;;;;;;;17.37;100.00;100861.91;2102823;28;20036;-72
2023/05/26 00:26:44;;;;;;;10.15;7.35;;;;;;;17.37;100.00;100856.56;2100127;28;20051;-72
2023/05/26 00:28:05;;;;;;;10.45;7.68;;;;;;;17.37;100.00;100854.78;2099904;28;20531;-72
2023/05/26 00:29:28;;;;;;;9.00;7.30;;;;;;;17.36;100.00;100844.09;2099349;28;20056;-72
2023/05/26 00:30:50;;;;;;;9.77;7.75;;;;;;;17.34;100.00;100841.44;2108423;28;20146;-72
2023/05/26 00:32:16;;;;;;;10.93;8.10;;;;;;;17.31;100.00;100836.16;2102152;28;20110;-72
2023/05/26 00:33:37;;;;;;;10.82;7.70;;;;;;;17.30;100.00;100833.50;2108841;28;20481;-73
2023/05/26 00:35:02;;;;;;;10.23;8.30;;;;;;;17.29;100.00;100835.28;2105287;28;20109;-72
2023/05/26 00:36:23;;;;;;;9.70;7.93;;;;;;;17.28;100.00;100840.63;2105429;28;20093;-72
2023/05/26 00:37:45;;;;;;;11.18;8.48;;;;;;;17.26;100.00;100838.00;2109674;28;20031;-72
2023/05/26 00:39:07;;;;;;;12.57;8.20;;;;;;;17.24;100.00;100838.91;2108477;28;20056;-72
2023/05/26 00:40:32;;;;;;;10.48;7.57;;;;;;;17.22;100.00;100840.69;2094205;28;20404;-72
2023/05/26 00:41:54;;;;;;;10.65;8.48;;;;;;;17.20;100.00;100838.03;2094334;28;20131;-73
2023/05/26 00:43:17;;;;;;;12.38;8.23;;;;;;;17.19;100.00;100833.63;2102625;28;20050;-72
2023/05/26 00:44:39;;;;;;;12.27;8.13;;;;;;;17.18;100.00;100830.97;2100157;28;20188;-72
2023/05/26 00:46:01;;;;;;;11.13;7.45;;;;;;;17.12;100.00;100823.91;2102453;28;20040;-72
2023/05/26 00:47:26;;;;;;;12.60;8.02;;;;;;;17.10;100.00;100831.94;2094486;28;20505;-72
2023/05/26 00:48:47;;;;;;;10.05;7.65;;;;;;;17.06;100.00;100815.97;2101788;28;20044;-72
2023/05/26 00:50:12;;;;;;;9.82;7.63;;;;;;;17.04;100.00;100812.44;2103132;28;20048;-72
2023/05/26 00:51:34;;;;;;;9.93;8.48;;;;;;;17.01;100.00;100809.78;2102207;28;20035;-72
2023/05/26 00:52:57;;;;;;;10.85;7.93;;;;;;;17.01;100.00;100809.78;2096402;28;20056;-73
2023/05/26 00:54:19;;;;;;;9.80;7.97;;;;;;;16.99;100.00;100804.50;2102242;28;20086;-72
2023/05/26 00:55:42;;;;;;;9.93;7.30;;;;;;;16.97;100.00;100792.06;2113650;27;20050;-72
2023/05/26 00:57:05;;;;;;;9.45;8.18;;;;;;;16.94;100.00;100792.06;2101977;28;20086;-72
2023/05/26 00:58:28;;;;;;;10.65;7.90;;;;;;;16.94;100.00;100781.41;2106135;28;20059;-72
2023/05/26 00:59:51;;;;;;;11.10;8.40;;;;;;;16.94;100.00;100781.41;2110845;28;20438;-72
2023/05/26 01:01:14;;;;;;;10.90;8.15;;;;;;;16.95;100.00;100775.19;2110870;28;20032;-73
2023/05/26 01:02:40;;;;;;;11.18;7.60;;;;;;;16.94;100.00;100774.28;2101835;28;20055;-72
2023/05/26 01:04:01;;;;;;;8.93;7.38;;;;;;;16.93;100.00;100780.56;2099385;28;20443;-73
2023/05/26 01:05:24;;;;;;;9.48;8.05;;;;;;;16.93;100.00;100782.34;2102289;28;20480;-72
2023/05/26 01:06:45;;;;;;;10.23;7.55;;;;;;;16.92;100.00;100785.88;2107233;28;20036;-72
2023/05/26 01:08:11;;;;;;;10.85;7.68;;;;;;;16.92;100.00;100785.88;2105729;28;20066;-73
2023/05/26 01:09:34;;;;;;;9.90;7.05;;;;;;;16.91;100.00;100789.44;2110412;28;20074;-72
2023/05/26 01:11:01;;;;;;;10.40;8.57;;;;;;;16.88;100.00;100793.03;2110612;28;20463;-72
2023/05/26 01:12:29;;;;;;;10.98;7.90;;;;;;;16.87;100.00;100801.91;2111787;27;20555;-72
2023/05/26 01:13:54;;;;;;;12.80;8.48;;;;;;;16.87;100.00;100806.41;2098563;28;20101;-73
2023/05/26 01:15:23;;;;;;;9.52;7.82;;;;;;;16.88;100.00;100813.47;2118861;27;20047;-72
2023/05/26 01:16:52;;;;;;;12.02;8.20;;;;;;;16.88;100.00;100826.81;2103682;28;20081;-72
2023/05/26 01:18:20;;;;;;;9.85;7.43;;;;;;;16.87;100.00;100827.72;2118469;27;20372;-72
2023/05/26 01:20:06;;;;;;;10.05;7.53;;;;;;;16.84;100.00;100825.97;2104145;28;20754;-72
2023/05/26 01:21:34;;;;;;;12.45;7.57;;;;;;;16.82;100.00;100821.53;2113373;28;20069;-72
2023/05/26 01:23:27;;;;;;;10.77;7.80;;;;;;;16.82;100.00;100814.41;2095252;28;20428;-72
2023/05/26 01:25:01;;;;;;;12.02;7.93;;;;;;;16.80;100.00;100808.22;2113358;28;20051;-72
2023/05/26 01:26:36;;;;;;;9.38;7.72;;;;;;;16.80;100.00;100791.34;2098732;28;20051;-72
2023/05/26 01:28:18;;;;;;;11.32;7.78;;;;;;;16.77;100.00;100796.69;2122561;27;20450;-73
2023/05/26 01:29:41;;;;;;;10.57;7.22;;;;;;;16.66;100.00;100792.34;2105069;28;20106;-72
2023/05/26 01:31:03;;;;;;;10.38;6.93;;;;;;;16.58;100.00;100785.28;2099837;28;20048;-73
2023/05/26 01:32:26;;;;;;;9.77;7.10;;;;;;;16.50;100.00;100789.78;2098180;28;20070;-72
2023/05/26 01:33:49;;;;;;;10.25;7.22;;;;;;;16.43;100.00;100796.94;2100224;28;20135;-72
2023/05/26 01:35:11;;;;;;;9.02;6.97;;;;;;;16.45;100.00;100796.94;2109390;28;20090;-72
2023/05/26 01:36:35;;;;;;;8.30;5.90;;;;;;;16.48;100.00;100802.22;2101341;28;20044;-72
2023/05/26 01:37:59;;;;;;;11.70;8.07;;;;;;;16.53;100.00;100809.31;2093907;28;20071;-73
2023/05/26 01:39:21;;;;;;;10.43;8.30;;;;;;;16.54;100.00;100813.72;2100287;28;20052;-71
2023/05/26 01:40:44;;;;;;;12.00;9.10;;;;;;;16.53;100.00;100814.66;2101986;28;20609;-72
2023/05/26 01:42:13;;;;;;;11.98;8.55;;;;;;;16.52;100.00;100806.66;2099911;28;20508;-72
2023/05/26 01:43:41;;;;;;;11.45;9.00;;;;;;;16.53;100.00;100798.66;2103441;28;20047;-72
2023/05/26 01:45:08;;;;;;;9.43;7.35;;;;;;;16.58;100.00;100799.50;2102081;28;20863;-73
2023/05/26 01:46:36;;;;;;;13.15;9.07;;;;;;;16.63;100.00;100797.69;2106846;28;20052;-72
2023/05/26 01:48:02;;;;;;;11.30;8.88;;;;;;;16.69;100.00;100805.63;2096520;28;20653;-73
2023/05/26 01:49:29;;;;;;;9.32;7.30;;;;;;;16.76;100.00;100805.59;2094079;28;20052;-72
2023/05/26 01:50:55;;;;;;;9.70;7.60;;;;;;;16.80;100.00;100804.69;2099477;28;20127;-72
2023/05/26 01:52:19;;;;;;;11.45;8.15;;;;;;;16.84;100.00;100809.97;2093520;28;20090;-72
2023/05/26 01:53:44;;;;;;;11.32;8.60;;;;;;;16.89;100.00;100810.78;2102162;28;20080;-72
2023/05/26 01:55:08;;;;;;;12.00;7.72;;;;;;;16.91;100.00;100811.66;2109172;28;20039;-72
2023/05/26 01:56:33;;;;;;;11.73;8.70;;;;;;;16.93;100.00;100812.56;2103500;28;20076;-73
2023/05/26 01:57:56;;;;;;;10.20;7.80;;;;;;;16.96;100.00;100815.16;2101621;28;20086;-72
2023/05/26 01:59:22;;;;;;;11.30;8.57;;;;;;;16.97;100.00;100814.28;2099919;28;20048;-72
2023/05/26 02:00:47;;;;;;;11.05;8.13;;;;;;;16.97;100.00;100808.94;2100190;28;20052;-72
2023/05/26 02:02:09;;;;;;;10.85;8.65;;;;;;;16.96;100.00;100803.63;2108785;28;20039;-72
2023/05/26 02:03:32;;;;;;;10.02;8.63;;;;;;;16.95;100.00;100799.19;2102483;28;20048;-72
2023/05/26 02:04:55;;;;;;;12.90;8.82;;;;;;;16.93;100.00;100803.66;2099034;28;20139;-72
2023/05/26 02:06:16;;;;;;;10.40;8.70;;;;;;;16.94;100.00;100798.28;2097104;28;20042;-72
2023/05/26 02:07:42;;;;;;;11.15;8.05;;;;;;;16.90;100.00;100799.22;2106125;28;20112;-72
2023/05/26 02:09:04;;;;;;;10.13;7.45;;;;;;;16.87;100.00;100807.25;2096459;28;20144;-72
2023/05/26 02:10:27;;;;;;;11.27;7.80;;;;;;;16.84;100.00;100811.75;2101589;28;20048;-72
2023/05/26 02:11:49;;;;;;;12.85;9.55;;;;;;;16.85;100.00;100818.84;2099493;28;20095;-72
2023/05/26 02:13:11;;;;;;;10.75;9.27;;;;;;;16.86;100.00;100808.16;2101879;28;20067;-72
2023/05/26 02:14:34;;;;;;;11.45;8.18;;;;;;;16.88;100.00;100808.13;2097361;28;20043;-72
2023/05/26 02:15:56;;;;;;;10.27;8.68;;;;;;;16.87;100.00;100801.91;2111489;28;20060;-72
2023/05/26 02:17:18;;;;;;;9.10;7.57;;;;;;;16.89;100.00;100804.56;2099254;28;20059;-72
2023/05/26 02:18:40;;;;;;;10.23;7.97;;;;;;;16.90;100.00;100801.00;2102395;28;20044;-72
2023/05/26 02:20:03;;;;;;;10.15;7.97;;;;;;;16.90;100.00;100806.34;2100546;28;20070;-72
2023/05/26 02:21:26;;;;;;;12.48;8.38;;;;;;;16.91;100.00;100800.13;2099379;28;20105;-72
2023/05/26 02:22:47;;;;;;;11.68;8.38;;;;;;;16.93;100.00;100801.00;2095182;28;20052;-72
2023/05/26 02:24:11;;;;;;;11.50;9.07;;;;;;;16.94;100.00;100798.28;2101433;28;20098;-72
2023/05/26 02:25:33;;;;;;;11.45;8.85;;;;;;;16.94;100.00;100794.75;2103951;28;20092;-72
2023/05/26 02:26:56;;;;;;;12.25;8.90;;;;;;;16.95;100.00;100796.50;2103325;28;20163;-72
2023/05/26 02:28:17;;;;;;;10.75;7.97;;;;;;;16.94;100.00;100781.41;2100819;28;20097;-72
2023/05/26 02:29:42;;;;;;;10.63;8.88;;;;;;;16.94;100.00;100792.06;2117792;27;20131;-72
2023/05/26 02:31:05;;;;;;;11.98;9.50;;;;;;;16.93;100.00;100791.22;2113603;28;20050;-72
2023/05/26 02:32:29;;;;;;;13.10;9.60;;;;;;;16.90;100.00;100783.22;2103625;28;20207;-73
2023/05/26 02:33:51;;;;;;;14.75;9.95;;;;;;;16.88;100.00;100787.69;2109331;28;20380;-72
2023/05/26 02:35:13;;;;;;;13.60;9.50;;;;;;;16.86;100.00;100780.63;2111880;28;20048;-72
2023/05/26 02:36:36;;;;;;;11.25;9.32;;;;;;;16.84;100.00;100785.06;2106240;28;20063;-72
2023/05/26 02:37:57;;;;;;;10.32;8.55;;;;;;;16.82;100.00;100786.88;2106365;28;20262;-72
2023/05/26 02:39:19;;;;;;;12.70;9.60;;;;;;;16.80;100.00;100784.25;2100538;28;20075;-72
2023/05/26 02:40:41;;;;;;;11.35;9.00;;;;;;;16.78;100.00;100787.81;2103792;28;20106;-72
2023/05/26 02:42:03;;;;;;;12.10;9.43;;;;;;;16.74;100.00;100785.16;2095127;28;20078;-72
2023/05/26 02:43:26;;;;;;;10.63;8.98;;;;;;;16.76;100.00;100786.91;2092852;28;20407;-72
2023/05/26 02:44:50;;;;;;;11.70;8.68;;;;;;;16.76;100.00;100786.91;2092369;28;20052;-72
2023/05/26 02:46:13;;;;;;;12.30;9.02;;;;;;;16.74;100.00;100787.81;2109389;28;20423;-72
2023/05/26 02:47:37;;;;;;;12.93;10.23;;;;;;;16.74;100.00;100790.47;2106143;28;20108;-72
2023/05/26 02:49:00;;;;;;;11.32;9.50;;;;;;;16.76;100.00;100792.25;2108183;28;20143;-72
2023/05/26 02:50:23;;;;;;;11.57;9.55;;;;;;;16.75;100.00;100799.38;2089777;28;20041;-72
2023/05/26 02:51:45;;;;;;;12.18;8.40;;;;;;;16.76;100.00;100805.59;2107177;28;20051;-72
2023/05/26 02:53:07;;;;;;;12.85;8.57;;;;;;;16.69;100.00;100804.75;2100933;28;20072;-72
2023/05/26 02:54:30;;;;;;;10.88;7.47;;;;;;;16.62;100.00;100803.91;2105783;28;20439;-72
2023/05/26 02:55:52;;;;;;;9.60;8.45;;;;;;;16.58;100.00;100812.81;2104990;28;20496;-72
2023/05/26 02:57:14;;;;;;;12.75;8.60;;;;;;;16.59;100.00;100809.25;2100019;28;20553;-72
2023/05/26 02:58:36;;;;;;;14.90;9.80;;;;;;;16.64;100.00;100814.59;2107796;28;20077;-72
2023/05/26 02:59:59;;;;;;;10.68;9.18;;;;;;;16.69;100.00;100818.09;2100026;28;20057;-72
2023/05/26 03:01:24;;;;;;;12.00;8.88;;;;;;;16.72;100.00;100824.28;2092612;28;20479;-72
2023/05/26 03:02:46;;;;;;;11.82;9.45;;;;;;;16.75;100.00;100834.03;2112009;28;20548;-72
2023/05/26 03:04:09;;;;;;;12.23;8.20;;;;;;;16.73;100.00;100842.06;2105613;28;20059;-72
2023/05/26 03:05:32;;;;;;;9.82;8.07;;;;;;;16.72;100.00;100840.28;2103568;28;20056;-72
2023/05/26 03:06:53;;;;;;;13.27;8.82;;;;;;;16.68;100.00;100834.97;2092029;28;20566;-72
2023/05/26 03:08:19;;;;;;;12.57;8.32;;;;;;;16.65;100.00;100833.22;2099295;28;20495;-72
2023/05/26 03:09:42;;;;;;;12.45;9.10;;;;;;;16.65;100.00;100835.91;2102618;28;20106;-72
2023/05/26 03:11:05;;;;;;;12.07;9.85;;;;;;;16.67;100.00;100835.91;2099958;28;20059;-72
2023/05/26 03:12:26;;;;;;;11.23;9.15;;;;;;;16.69;100.00;100834.06;2102343;28;20040;-73
2023/05/26 03:13:49;;;;;;;13.32;9.02;;;;;;;16.65;100.00;100833.22;2100838;28;20139;-72
2023/05/26 03:15:12;;;;;;;11.07;9.13;;;;;;;16.59;100.00;100833.25;2098292;28;20047;-72
2023/05/26 03:16:35;;;;;;;12.60;9.82;;;;;;;16.55;100.00;100831.47;2093749;28;20126;-72
2023/05/26 03:17:58;;;;;;;13.20;9.90;;;;;;;16.56;100.00;100837.69;2097615;28;20063;-72
2023/05/26 03:19:20;;;;;;;12.60;10.82;;;;;;;16.58;100.00;100833.25;2099406;28;20052;-72
2023/05/26 03:20:42;;;;;;;13.93;11.40;;;;;;;16.59;100.00;100835.03;2100443;28;20450;-72
2023/05/26 03:22:05;;;;;;;12.90;11.05;;;;;;;16.61;100.00;100842.13;2096994;28;20066;-72
2023/05/26 03:23:29;;;;;;;13.68;11.73;;;;;;;16.60;100.00;100835.06;2106132;28;20063;-72
2023/05/26 03:24:52;;;;;;;13.88;11.15;;;;;;;16.60;100.00;100837.72;2099422;28;20032;-72
2023/05/26 03:26:16;;;;;;;12.73;10.18;;;;;;;16.61;100.00;100839.47;2103641;28;20470;-72
2023/05/26 03:27:40;;;;;;;11.15;9.43;;;;;;;16.62;100.00;100829.69;2099850;28;20062;-72
2023/05/26 03:29:02;;;;;;;13.63;9.98;;;;;;;16.62;100.00;100822.59;2101150;28;20040;-72
2023/05/26 03:30:26;;;;;;;11.65;9.43;;;;;;;16.66;100.00;100816.34;2093585;28;20045;-72
2023/05/26 03:31:50;;;;;;;12.52;8.82;;;;;;;16.70;100.00;100828.75;2092284;28;20049;-72
2023/05/26 03:33:12;;;;;;;11.45;9.00;;;;;;;16.74;100.00;100833.13;2094620;28;20645;-72
2023/05/26 03:34:39;;;;;;;16.17;10.23;;;;;;;16.80;100.00;100836.69;2092243;28;20049;-72
2023/05/26 03:36:02;;;;;;;12.95;9.60;;;;;;;16.82;100.00;100837.53;2114281;27;21071;-72
2023/05/26 03:37:25;;;;;;;13.48;9.30;;;;;;;16.86;100.00;100833.94;2098389;28;20052;-71
2023/05/26 03:38:46;;;;;;;10.60;8.85;;;;;;;16.89;100.00;100829.47;2103000;28;20056;-72
2023/05/26 03:40:09;;;;;;;11.13;9.35;;;;;;;16.90;100.00;100820.56;2108100;28;20100;-72
2023/05/26 03:41:33;;;;;;;12.88;9.18;;;;;;;16.92;100.00;100818.78;2104725;28;20048;-72
2023/05/26 03:42:55;;;;;;;13.45;9.02;;;;;;;16.96;100.00;100809.84;2105976;28;20495;-72
2023/05/26 03:44:21;;;;;;;12.20;9.27;;;;;;;17.01;100.00;100815.13;2102297;28;20082;-72
2023/05/26 03:45:45;;;;;;;12.88;8.90;;;;;;;17.05;100.00;100814.22;2095262;28;20044;-72
2023/05/26 03:47:07;;;;;;;16.52;9.10;;;;;;;17.08;100.00;100815.03;2099361;28;20051;-73
2023/05/26 03:48:29;;;;;;;13.25;8.05;;;;;;;17.13;100.00;100810.53;2107360;28;20040;-72
2023/05/26 03:49:52;;;;;;;11.25;8.00;;;;;;;17.19;100.00;100822.06;2100413;28;20885;-72
2023/05/26 03:51:13;;;;;;;11.27;7.85;;;;;;;17.22;100.00;100808.69;2092038;28;20071;-72
2023/05/26 03:52:36;;;;;;;10.93;8.10;;;;;;;17.27;100.00;100813.06;2096196;28;20044;-72
2023/05/26 03:53:59;;;;;;;9.35;7.82;;;;;;;17.33;100.00;100821.00;2107945;28;20051;-72
2023/05/26 03:55:21;;;;;;;11.68;8.20;;;;;;;17.37;100.00;100817.41;2097467;28;20047;-72
2023/05/26 03:56:43;;;;;;;12.68;8.10;;;;;;;17.43;100.00;100819.13;2099342;28;20040;-72
2023/05/26 03:58:06;;;;;;;10.60;7.80;;;;;;;17.47;100.00;100811.06;2092229;28;20052;-73
2023/05/26 03:59:28;;;;;;;11.35;8.40;;;;;;;17.53;100.00;100821.66;2098095;28;20040;-72
2023/05/26 04:00:51;;;;;;;10.95;7.78;;;;;;;17.59;100.00;100822.50;2097465;28;20052;-72
2023/05/26 04:02:14;;;;;;;9.52;7.93;;;;;;;17.64;100.00;100831.38;2101610;28;21122;-72
2023/05/26 04:03:35;;;;;;;10.93;7.55;;;;;;;17.69;100.00;100840.19;2098123;28;20131;-72
2023/05/26 04:04:58;;;;;;;10.65;6.93;;;;;;;17.72;100.00;100829.50;2107259;28;20071;-72
2023/05/26 04:06:22;;;;;;;9.88;7.22;;;;;;;17.76;100.00;100821.41;2105320;28;20044;-72
2023/05/26 04:07:46;;;;;;;12.40;6.95;;;;;;;17.81;100.00;100826.69;2099925;28;20047;-72
2023/05/26 04:09:08;;;;;;;8.90;6.55;;;;;;;17.88;100.00;100828.38;2102995;28;20428;-72
2023/05/26 04:10:30;;;;;;;9.80;6.47;;;;;;;17.93;100.00;100826.53;2099666;28;20044;-72
2023/05/26 04:11:54;;;;;;;9.05;6.43;;;;;;;17.96;100.00;100818.47;2100131;28;20071;-72
2023/05/26 04:13:16;;;;;;;9.40;6.28;;;;;;;17.97;100.00;100817.59;2107636;28;20063;-73
2023/05/26 04:14:37;;;;;;;8.65;6.03;;;;;;;18.00;100.00;100817.53;2102891;28;20048;-72
2023/05/26 04:16:02;;;;;;;8.05;5.43;;;;;;;18.06;100.00;100809.41;2100385;28;20569;-72
2023/05/26 04:17:25;;;;;;;8.07;5.60;;;;;;;18.13;100.00;100810.22;2107919;28;20182;-72
2023/05/26 04:18:46;;;;;;;9.88;6.07;;;;;;;18.19;100.00;100808.34;2111277;28;20570;-72
2023/05/26 04:20:10;;;;;;;;;;;;;;;18.20;100.00;100815.44;2103414;28;20091;-72
2023/05/26 04:21:31;;;;;;;7.32;4.97;;;;;;;18.18;100.00;100811.91;2125937;27;19923;-72
2023/05/26 04:22:53;;;;;;;10.82;5.63;;;;;;;18.22;100.00;100819.00;2108246;28;20071;-72
2023/05/26 04:24:15;;;;;;;8.80;5.88;;;;;;;18.31;100.00;100816.16;2109587;28;20663;-72
2023/05/26 04:25:37;;;;;;;8.93;5.57;;;;;;;18.43;100.00;100808.88;2102776;28;20510;-72
2023/05/26 04:27:18;;;;;;;7.95;6.10;;;;;;;18.55;100.00;100814.94;2113527;28;20050;-72
2023/05/26 04:29:01;;;;;;;9.15;6.10;;;;;;;18.69;100.00;100804.03;2105555;28;20040;-73
2023/05/26 04:30:38;;;;;;;7.03;5.47;;;;;;;18.84;100.00;100813.59;2105419;28;20563;-72
2023/05/26 04:32:29;;;;;;;8.95;5.50;;;;;;;18.98;100.00;100811.53;2092399;28;20139;-72
2023/05/26 04:34:21;;;;;;;8.10;5.90;;;;;;;19.09;100.00;100815.78;2079899;28;20058;-72
2023/05/26 04:35:50;;;;;;;7.32;5.20;;;;;;;19.20;100.00;100814.69;2112969;27;20559;-72
2023/05/26 04:37:14;;;;;;;10.07;5.53;;;;;;;19.31;100.00;100810.91;2106975;28;20480;-72
2023/05/26 04:38:36;;;;;;;8.40;5.05;;;;;;;19.41;100.00;100815.19;2108500;28;20495;-72
2023/05/26 04:39:58;;;;;;;7.63;4.80;;;;;;;19.50;100.00;100828.41;2111030;28;20134;-72
2023/05/26 04:41:21;;;;;;;8.80;5.25;;;;;;;19.58;100.00;100824.69;2113547;28;20156;-72
2023/05/26 04:42:44;;;;;;;10.35;5.53;;;;;;;19.68;100.00;100827.16;2097519;28;20127;-73
2023/05/26 04:44:05;;;;;;;8.85;4.75;;;;;;;19.78;100.00;100831.41;2093938;28;20056;-72
2023/05/26 04:45:28;;;;;;;8.75;5.20;;;;;;;19.84;100.00;100836.63;2108378;28;20039;-72
2023/05/26 04:46:50;;;;;;;7.15;4.72;;;;;;;19.95;100.00;100832.84;2097240;28;20072;-72
2023/05/26 04:48:13;;;;;;;8.80;4.57;;;;;;;20.05;100.00;100837.06;2105661;28;20083;-72
2023/05/26 04:49:37;;;;;;;8.68;5.28;;;;;;;20.14;100.00;100853.84;2098601;28;20062;-73
2023/05/26 04:50:58;;;;;;;7.53;4.93;;;;;;;20.23;100.00;100866.16;2100416;28;20507;-72
2023/05/26 04:52:21;;;;;;;8.55;4.75;;;;;;;20.32;100.00;100870.44;2099104;28;20050;-72
2023/05/26 04:53:42;;;;;;;7.43;4.78;;;;;;;20.39;100.00;100862.25;2098860;28;20165;-72
2023/05/26 04:55:06;;;;;;;12.20;4.70;;;;;;;20.48;100.00;100859.34;2095817;28;20047;-72
2023/05/26 04:56:28;;;;;;;7.82;4.97;;;;;;;20.53;100.00;100853.88;2099351;28;20063;-72
2023/05/26 04:57:54;;;;;;;9.77;4.88;;;;;;;20.61;100.00;100852.75;2100085;28;20043;-72
2023/05/26 04:59:17;;;;;;;6.53;4.50;;;;;;;20.72;100.00;100851.63;2098203;28;20056;-72
2023/05/26 05:00:40;;;;;;;5.40;3.88;;;;;;;20.83;100.00;100855.81;2095011;28;20048;-72
2023/05/26 05:02:38;;;;;;;7.40;4.25;;;;;;;20.98;100.00;100843.81;2110316;28;20083;-72
2023/05/26 05:04:09;;;;;;;6.35;4.55;;;;;;;21.12;100.00;100843.44;2099363;28;22358;-72
2023/05/26 05:05:36;;;;;;;5.97;4.10;;;;;;;21.23;100.00;100836.91;2094946;28;20059;-72
2023/05/26 05:06:57;;;;;;;6.93;4.63;;;;;;;21.34;100.00;100832.09;2097718;28;20411;-73
2023/05/26 05:08:20;;;;;;;5.97;4.25;;;;;;;21.45;100.00;100821.97;2104975;28;20043;-73
2023/05/26 05:09:41;;;;;;;6.78;3.90;;;;;;;21.52;100.00;100811.94;2109888;28;20048;-72
2023/05/26 05:11:07;;;;;;;8.48;4.70;;;;;;;21.59;100.00;100800.09;2114205;27;20051;-72
2023/05/26 05:12:28;;;;;;;7.57;4.45;;;;;;;21.61;100.00;100782.09;2102849;28;20051;-71
2023/05/26 05:13:51;;;;;;;7.20;4.35;;;;;;;21.63;100.00;100780.25;2102001;28;20503;-71
2023/05/26 05:15:14;;;;;;;5.63;4.15;;;;;;;21.66;100.00;100784.66;2099996;28;20051;-71
2023/05/26 05:16:37;;;;;;;5.78;4.32;;;;;;;21.70;100.00;100791.69;2099450;28;20168;-73
2023/05/26 05:18:02;;;;;;;6.20;4.50;;;;;;;21.79;100.00;100796.81;2099627;28;20086;-73
2023/05/26 05:19:26;;;;;;;5.60;4.20;;;;;;;21.94;100.00;100804.38;2098845;28;20070;-72
2023/05/26 05:20:50;;;;;;;7.25;4.45;;;;;;;22.04;100.00;100800.53;2099560;28;20592;-72
2023/05/26 05:22:13;;;;;;;8.85;4.68;;;;;;;22.16;100.00;100801.97;2099543;28;20076;-72
2023/05/26 05:23:34;;;;;;;8.00;4.18;;;;;;;22.24;100.00;100795.44;2101322;28;20051;-73
2023/05/26 05:24:58;;;;;;;7.38;3.65;;;;;;;22.36;100.00;100793.25;2099110;28;20117;-72
2023/05/26 05:26:22;;;;;;;6.38;4.03;;;;;;;22.43;100.00;100786.75;2099705;28;20711;-72
2023/05/26 05:27:45;;;;;;;6.68;3.90;;;;;;;22.55;100.00;100789.03;2099116;28;20249;-73
2023/05/26 05:29:08;;;;;;;5.75;3.55;;;;;;;22.67;100.00;100799.38;2090754;28;20144;-73
2023/05/26 05:30:38;;;;;;;7.18;3.90;;;;;;;22.80;100.00;100800.75;2101023;28;20044;-73
2023/05/26 05:32:01;;;;;;;7.75;3.60;;;;;;;22.93;100.00;100801.22;2098982;28;20040;-72
2023/05/26 05:33:28;;;;;;;6.95;3.60;;;;;;;23.07;100.00;100798.03;2098179;28;20443;-72
2023/05/26 05:34:52;;;;;;;5.82;3.50;;;;;;;23.21;100.00;100795.75;2109004;28;20055;-73
2023/05/26 05:36:15;;;;;;;5.60;3.63;;;;;;;23.34;100.00;100795.25;2101689;28;20075;-72
2023/05/26 05:37:36;;;;;;;5.82;2.85;;;;;;;23.47;100.00;100787.63;2094571;28;20048;-72
2023/05/26 05:38:59;;;;;;;5.40;3.45;;;;;;;23.62;100.00;100788.88;2107076;28;20051;-72
2023/05/26 05:40:20;;;;;;;7.35;3.38;;;;;;;23.75;100.00;100791.06;2100221;28;20049;-73
2023/05/26 05:41:43;;;;;;;6.13;3.78;;;;;;;23.91;100.00;100785.03;2102341;28;20063;-73
2023/05/26 05:43:06;;;;;;;8.18;3.90;;;;;;;24.06;100.00;100793.44;2097119;28;20090;-73
2023/05/26 05:44:27;;;;;;;5.70;3.88;;;;;;;24.20;100.00;100791.09;2104918;28;20427;-73
2023/05/26 05:45:50;;;;;;;5.65;3.30;;;;;;;24.33;100.00;100787.91;2102871;28;20523;-73
2023/05/26 05:47:34;;;;;;;6.30;3.90;;;;;;;24.43;100.00;100787.44;2104871;28;20515;-73
2023/05/26 05:49:00;;;;;;;6.32;3.65;;;;;;;24.56;100.00;100787.81;2099947;28;20143;-72
2023/05/26 05:50:45;;;;;;;5.40;3.25;;;;;;;24.70;100.00;100780.03;2104619;28;20040;-73
2023/05/26 05:52:06;;;;;;;5.82;3.55;;;;;;;24.79;100.00;100785.03;2110201;28;20036;-73
2023/05/26 05:53:28;;;;;;;5.45;3.50;;;;;;;24.87;100.00;100785.59;2104131;28;20540;-73
2023/05/26 05:54:51;;;;;;;8.18;3.90;;;;;;;24.95;100.00;100783.47;2094456;28;20732;-73
2023/05/26 05:56:13;;;;;;;7.70;3.33;;;;;;;25.06;100.00;100787.53;2099420;28;20392;-73
2023/05/26 05:57:36;;;;;;;5.53;3.20;;;;;;;25.13;100.00;100779.09;2092502;28;20505;-73
2023/05/26 05:58:58;;;;;;;9.30;3.80;;;;;;;25.24;100.00;100784.88;2094008;28;20090;-72
2023/05/26 06:00:21;;;;;;;8.43;3.55;;;;;;;25.40;100.00;100785.09;2101145;28;20044;-73
2023/05/26 06:01:42;;;;;;;5.18;3.20;;;;;;;25.57;100.00;100784.31;2107661;28;20481;-73
2023/05/26 06:03:05;;;;;;;6.40;3.55;;;;;;;25.66;100.00;100786.63;2104722;28;20063;-72
2023/05/26 06:04:27;;;;;;;7.07;3.75;;;;;;;25.74;100.00;100784.44;2105262;28;20346;-72
2023/05/26 06:05:51;;;;;;;6.57;3.55;;;;;;;25.85;100.00;100790.22;2093287;28;20052;-72
2023/05/26 06:07:14;;;;;;;6.22;3.30;;;;;;;25.94;100.00;100795.19;2097151;28;20437;-73
2023/05/26 06:08:37;;;;;;;7.45;3.88;;;;;;;26.07;100.00;100798.19;2096452;28;20171;-73
2023/05/26 06:10:00;;;;;;;6.40;3.05;;;;;;;26.23;100.00;100790.22;2101093;28;20044;-72
2023/05/26 06:11:23;;;;;;;7.30;3.40;;;;;;;26.34;100.00;100790.59;2104430;28;20036;-73
2023/05/26 06:12:45;;;;;;;6.43;3.15;;;;;;;26.44;100.00;100786.50;2097777;28;20137;-72
2023/05/26 06:14:08;;;;;;;5.60;3.10;;;;;;;26.54;99.38;100785.94;2096722;28;20102;-73
2023/05/26 06:15:31;;;;;;;7.80;3.42;;;;;;;26.61;99.89;100786.53;2107612;28;20456;-72
2023/05/26 06:16:53;;;;;;;5.43;3.40;;;;;;;26.67;99.45;100774.50;2101007;28;20416;-73
2023/05/26 06:18:16;;;;;;;6.18;3.17;;;;;;;26.67;99.43;100788.03;2107448;28;20433;-73
2023/05/26 06:19:39;;;;;;;6.15;3.47;;;;;;;26.57;97.70;100788.53;2104723;28;20102;-73
2023/05/26 06:21:01;;;;;;;6.53;3.53;;;;;;;26.53;96.64;100791.44;2092869;28;20044;-72
2023/05/26 06:22:25;;;;;;;9.52;3.42;;;;;;;26.52;97.17;100797.81;2098890;28;20060;-73
2023/05/26 06:23:47;;;;;;;8.80;3.28;;;;;;;26.62;97.39;100803.66;2107327;28;20255;-73
2023/05/26 06:25:09;;;;;;;6.50;3.40;;;;;;;26.72;95.03;100799.50;2101056;28;20052;-73